sensor_id;sensor_type;location;lat;lon;timestamp;P1;durP1;ratioP1;P2;durP2;ratioP2
4274;SDS011;2151;50.988;11.068;2024-03-17T00:00:08;119.67;;;6.23;;
4274;SDS011;2151;50.988;11.068;2024-03-17T00:02:39;114.43;;;6.73;;
4274;SDS011;2151;50.988;11.068;2024-03-17T00:05:07;114.43;;;6.37;;
4274;SDS011;2151;50.988;11.068;2024-03-17T00:07:32;112.37;;;5.87;;
4274;SDS011;2151;50.988;11.068;2024-03-17T00:09:58;112.47;;;5.80;;
4274;SDS011;2151;50.988;11.068;2024-03-17T00:12:33;113.97;;;6.00;;
4274;SDS011;2151;50.988;11.068;2024-03-17T00:14:59;116.90;;;6.30;;
4274;SDS011;2151;50.988;11.068;2024-03-17T00:17:24;118.70;;;6.40;;
4274;SDS011;2151;50.988;11.068;2024-03-17T00:19:50;114.73;;;6.37;;
4274;SDS011;2151;50.988;11.068;2024-03-17T00:22:16;113.50;;;5.83;;
4274;SDS011;2151;50.988;11.068;2024-03-17T00:24:44;113.63;;;5.80;;
4274;SDS011;2151;50.988;11.068;2024-03-17T00:27:10;115.30;;;6.77;;
4274;SDS011;2151;50.988;11.068;2024-03-17T00:29:37;112.90;;;6.37;;
4274;SDS011;2151;50.988;11.068;2024-03-17T00:32:02;114.20;;;6.20;;
4274;SDS011;2151;50.988;11.068;2024-03-17T00:34:28;116.70;;;6.27;;
4274;SDS011;2151;50.988;11.068;2024-03-17T00:36:58;113.77;;;6.03;;
4274;SDS011;2151;50.988;11.068;2024-03-17T00:39:28;114.70;;;6.50;;
4274;SDS011;2151;50.988;11.068;2024-03-17T00:41:54;112.70;;;6.00;;
4274;SDS011;2151;50.988;11.068;2024-03-17T00:44:20;113.20;;;6.30;;
4274;SDS011;2151;50.988;11.068;2024-03-17T00:46:47;115.90;;;6.90;;
4274;SDS011;2151;50.988;11.068;2024-03-17T00:49:13;114.37;;;6.40;;
4274;SDS011;2151;50.988;11.068;2024-03-17T00:51:38;116.10;;;6.30;;
4274;SDS011;2151;50.988;11.068;2024-03-17T00:54:04;119.00;;;6.27;;
4274;SDS011;2151;50.988;11.068;2024-03-17T00:56:31;116.00;;;6.60;;
4274;SDS011;2151;50.988;11.068;2024-03-17T00:58:57;117.73;;;6.33;;
4274;SDS011;2151;50.988;11.068;2024-03-17T01:01:23;116.57;;;6.53;;
4274;SDS011;2151;50.988;11.068;2024-03-17T01:03:50;115.83;;;6.87;;
4274;SDS011;2151;50.988;11.068;2024-03-17T01:06:16;119.60;;;7.07;;
4274;SDS011;2151;50.988;11.068;2024-03-17T01:08:43;117.60;;;6.70;;
4274;SDS011;2151;50.988;11.068;2024-03-17T01:11:13;117.60;;;6.27;;
4274;SDS011;2151;50.988;11.068;2024-03-17T01:13:39;113.40;;;6.20;;
4274;SDS011;2151;50.988;11.068;2024-03-17T01:16:07;113.97;;;6.77;;
4274;SDS011;2151;50.988;11.068;2024-03-17T01:18:32;115.67;;;6.60;;
4274;SDS011;2151;50.988;11.068;2024-03-17T01:20:58;117.10;;;6.37;;
4274;SDS011;2151;50.988;11.068;2024-03-17T01:23:24;117.77;;;6.60;;
4274;SDS011;2151;50.988;11.068;2024-03-17T01:25:50;119.27;;;6.53;;
4274;SDS011;2151;50.988;11.068;2024-03-17T01:28:16;115.87;;;6.40;;
4274;SDS011;2151;50.988;11.068;2024-03-17T01:30:43;115.43;;;6.03;;
4274;SDS011;2151;50.988;11.068;2024-03-17T01:33:08;119.37;;;6.40;;
4274;SDS011;2151;50.988;11.068;2024-03-17T01:35:34;113.30;;;6.30;;
4274;SDS011;2151;50.988;11.068;2024-03-17T01:38:00;111.47;;;5.80;;
4274;SDS011;2151;50.988;11.068;2024-03-17T01:40:28;114.27;;;6.33;;
4274;SDS011;2151;50.988;11.068;2024-03-17T01:42:54;116.20;;;6.30;;
4274;SDS011;2151;50.988;11.068;2024-03-17T01:45:28;116.47;;;6.50;;
4274;SDS011;2151;50.988;11.068;2024-03-17T01:47:56;115.30;;;6.63;;
4274;SDS011;2151;50.988;11.068;2024-03-17T01:50:23;114.07;;;6.23;;
4274;SDS011;2151;50.988;11.068;2024-03-17T01:52:53;113.90;;;6.20;;
4274;SDS011;2151;50.988;11.068;2024-03-17T01:55:20;118.50;;;6.50;;
4274;SDS011;2151;50.988;11.068;2024-03-17T01:57:45;116.17;;;7.30;;
4274;SDS011;2151;50.988;11.068;2024-03-17T02:00:11;114.77;;;6.50;;
4274;SDS011;2151;50.988;11.068;2024-03-17T02:02:38;114.07;;;6.33;;
4274;SDS011;2151;50.988;11.068;2024-03-17T02:05:03;113.53;;;6.17;;
4274;SDS011;2151;50.988;11.068;2024-03-17T02:07:29;114.27;;;6.50;;
4274;SDS011;2151;50.988;11.068;2024-03-17T02:09:58;115.87;;;6.23;;
4274;SDS011;2151;50.988;11.068;2024-03-17T02:12:25;112.27;;;5.93;;
4274;SDS011;2151;50.988;11.068;2024-03-17T02:14:50;112.47;;;5.87;;
4274;SDS011;2151;50.988;11.068;2024-03-17T02:17:16;112.97;;;5.80;;
4274;SDS011;2151;50.988;11.068;2024-03-17T02:19:44;116.10;;;6.27;;
4274;SDS011;2151;50.988;11.068;2024-03-17T02:22:14;115.07;;;6.00;;
4274;SDS011;2151;50.988;11.068;2024-03-17T02:24:40;119.70;;;6.40;;
4274;SDS011;2151;50.988;11.068;2024-03-17T02:27:06;114.27;;;5.87;;
4274;SDS011;2151;50.988;11.068;2024-03-17T02:29:32;114.90;;;6.10;;
4274;SDS011;2151;50.988;11.068;2024-03-17T02:31:57;114.30;;;6.50;;
4274;SDS011;2151;50.988;11.068;2024-03-17T02:34:25;113.40;;;6.20;;
4274;SDS011;2151;50.988;11.068;2024-03-17T02:36:51;116.77;;;6.60;;
4274;SDS011;2151;50.988;11.068;2024-03-17T02:39:17;115.07;;;6.70;;
4274;SDS011;2151;50.988;11.068;2024-03-17T02:42:03;115.10;;;6.80;;
4274;SDS011;2151;50.988;11.068;2024-03-17T02:44:30;115.27;;;6.13;;
4274;SDS011;2151;50.988;11.068;2024-03-17T02:47:05;115.40;;;6.60;;
4274;SDS011;2151;50.988;11.068;2024-03-17T02:49:31;115.20;;;6.77;;
4274;SDS011;2151;50.988;11.068;2024-03-17T02:52:07;114.57;;;6.50;;
4274;SDS011;2151;50.988;11.068;2024-03-17T02:54:37;117.13;;;6.17;;
4274;SDS011;2151;50.988;11.068;2024-03-17T02:57:06;120.27;;;6.37;;
4274;SDS011;2151;50.988;11.068;2024-03-17T02:59:34;114.73;;;6.67;;
4274;SDS011;2151;50.988;11.068;2024-03-17T03:02:00;117.17;;;6.10;;
4274;SDS011;2151;50.988;11.068;2024-03-17T03:04:26;114.23;;;6.30;;
4274;SDS011;2151;50.988;11.068;2024-03-17T03:06:52;113.93;;;6.30;;
4274;SDS011;2151;50.988;11.068;2024-03-17T03:09:19;119.40;;;6.57;;
4274;SDS011;2151;50.988;11.068;2024-03-17T03:11:58;116.20;;;6.23;;
4274;SDS011;2151;50.988;11.068;2024-03-17T03:14:28;117.93;;;6.73;;
4274;SDS011;2151;50.988;11.068;2024-03-17T03:16:56;113.30;;;6.13;;
4274;SDS011;2151;50.988;11.068;2024-03-17T03:19:21;114.87;;;6.30;;
4274;SDS011;2151;50.988;11.068;2024-03-17T03:21:48;117.70;;;6.13;;
4274;SDS011;2151;50.988;11.068;2024-03-17T03:24:14;116.17;;;6.23;;
4274;SDS011;2151;50.988;11.068;2024-03-17T03:26:39;114.33;;;6.37;;
4274;SDS011;2151;50.988;11.068;2024-03-17T03:29:05;113.87;;;6.10;;
4274;SDS011;2151;50.988;11.068;2024-03-17T03:31:31;114.40;;;6.20;;
4274;SDS011;2151;50.988;11.068;2024-03-17T03:33:57;118.63;;;6.43;;
4274;SDS011;2151;50.988;11.068;2024-03-17T03:36:22;115.87;;;6.37;;
4274;SDS011;2151;50.988;11.068;2024-03-17T03:38:48;113.37;;;6.30;;
4274;SDS011;2151;50.988;11.068;2024-03-17T03:41:14;119.30;;;6.03;;
4274;SDS011;2151;50.988;11.068;2024-03-17T03:43:39;118.00;;;6.77;;
4274;SDS011;2151;50.988;11.068;2024-03-17T03:46:06;119.10;;;6.80;;
4274;SDS011;2151;50.988;11.068;2024-03-17T03:48:32;118.20;;;6.90;;
4274;SDS011;2151;50.988;11.068;2024-03-17T03:51:02;116.60;;;6.87;;
4274;SDS011;2151;50.988;11.068;2024-03-17T03:53:29;117.27;;;7.43;;
4274;SDS011;2151;50.988;11.068;2024-03-17T03:55:55;114.80;;;6.60;;
4274;SDS011;2151;50.988;11.068;2024-03-17T03:58:21;115.63;;;6.67;;
4274;SDS011;2151;50.988;11.068;2024-03-17T04:00:47;113.80;;;6.50;;
4274;SDS011;2151;50.988;11.068;2024-03-17T04:03:12;120.30;;;7.23;;
4274;SDS011;2151;50.988;11.068;2024-03-17T04:05:37;114.43;;;6.50;;
4274;SDS011;2151;50.988;11.068;2024-03-17T04:08:05;115.10;;;6.63;;
4274;SDS011;2151;50.988;11.068;2024-03-17T04:10:30;113.97;;;6.67;;
4274;SDS011;2151;50.988;11.068;2024-03-17T04:13:03;116.00;;;6.20;;
4274;SDS011;2151;50.988;11.068;2024-03-17T04:15:48;113.00;;;6.47;;
4274;SDS011;2151;50.988;11.068;2024-03-17T04:18:15;114.00;;;6.70;;
4274;SDS011;2151;50.988;11.068;2024-03-17T04:20:43;116.47;;;6.63;;
4274;SDS011;2151;50.988;11.068;2024-03-17T04:23:08;115.23;;;6.87;;
4274;SDS011;2151;50.988;11.068;2024-03-17T04:25:34;113.57;;;6.30;;
4274;SDS011;2151;50.988;11.068;2024-03-17T04:27:59;117.80;;;6.37;;
4274;SDS011;2151;50.988;11.068;2024-03-17T04:30:25;118.23;;;6.50;;
4274;SDS011;2151;50.988;11.068;2024-03-17T04:32:51;115.27;;;6.33;;
4274;SDS011;2151;50.988;11.068;2024-03-17T04:35:17;114.00;;;6.67;;
4274;SDS011;2151;50.988;11.068;2024-03-17T04:37:43;116.87;;;6.40;;
4274;SDS011;2151;50.988;11.068;2024-03-17T04:40:08;112.57;;;6.30;;
4274;SDS011;2151;50.988;11.068;2024-03-17T04:42:37;115.50;;;6.27;;
4274;SDS011;2151;50.988;11.068;2024-03-17T04:45:05;115.20;;;5.90;;
4274;SDS011;2151;50.988;11.068;2024-03-17T04:47:30;114.40;;;6.37;;
4274;SDS011;2151;50.988;11.068;2024-03-17T04:49:56;115.13;;;6.27;;
4274;SDS011;2151;50.988;11.068;2024-03-17T04:52:21;113.77;;;6.30;;
4274;SDS011;2151;50.988;11.068;2024-03-17T04:54:47;118.93;;;6.50;;
4274;SDS011;2151;50.988;11.068;2024-03-17T04:57:12;114.63;;;6.27;;
4274;SDS011;2151;50.988;11.068;2024-03-17T04:59:38;117.10;;;6.47;;
4274;SDS011;2151;50.988;11.068;2024-03-17T05:02:04;114.90;;;6.30;;
4274;SDS011;2151;50.988;11.068;2024-03-17T05:04:29;116.07;;;6.50;;
4274;SDS011;2151;50.988;11.068;2024-03-17T05:06:56;114.07;;;6.10;;
4274;SDS011;2151;50.988;11.068;2024-03-17T05:09:23;115.67;;;6.33;;
4274;SDS011;2151;50.988;11.068;2024-03-17T05:11:55;114.50;;;5.87;;
4274;SDS011;2151;50.988;11.068;2024-03-17T05:14:21;114.17;;;6.23;;
4274;SDS011;2151;50.988;11.068;2024-03-17T05:16:50;114.47;;;6.27;;
4274;SDS011;2151;50.988;11.068;2024-03-17T05:19:16;113.97;;;6.30;;
4274;SDS011;2151;50.988;11.068;2024-03-17T05:21:43;114.10;;;6.80;;
4274;SDS011;2151;50.988;11.068;2024-03-17T05:24:08;112.70;;;6.17;;
4274;SDS011;2151;50.988;11.068;2024-03-17T05:26:34;117.93;;;7.30;;
4274;SDS011;2151;50.988;11.068;2024-03-17T05:28:59;116.33;;;6.20;;
4274;SDS011;2151;50.988;11.068;2024-03-17T05:31:25;121.03;;;6.53;;
4274;SDS011;2151;50.988;11.068;2024-03-17T05:33:50;114.83;;;6.50;;
4274;SDS011;2151;50.988;11.068;2024-03-17T05:36:18;114.83;;;6.40;;
4274;SDS011;2151;50.988;11.068;2024-03-17T05:38:45;114.17;;;6.13;;
4274;SDS011;2151;50.988;11.068;2024-03-17T05:41:11;113.97;;;5.97;;
4274;SDS011;2151;50.988;11.068;2024-03-17T05:43:55;115.37;;;7.17;;
4274;SDS011;2151;50.988;11.068;2024-03-17T05:46:28;114.17;;;6.47;;
4274;SDS011;2151;50.988;11.068;2024-03-17T05:48:58;118.00;;;6.80;;
4274;SDS011;2151;50.988;11.068;2024-03-17T05:51:24;114.50;;;6.00;;
4274;SDS011;2151;50.988;11.068;2024-03-17T05:53:52;115.23;;;6.60;;
4274;SDS011;2151;50.988;11.068;2024-03-17T05:56:18;116.63;;;6.17;;
4274;SDS011;2151;50.988;11.068;2024-03-17T05:58:44;115.30;;;6.17;;
4274;SDS011;2151;50.988;11.068;2024-03-17T06:01:10;119.27;;;6.60;;
4274;SDS011;2151;50.988;11.068;2024-03-17T06:03:37;114.80;;;6.47;;
4274;SDS011;2151;50.988;11.068;2024-03-17T06:06:03;113.97;;;6.23;;
4274;SDS011;2151;50.988;11.068;2024-03-17T06:08:29;116.63;;;6.47;;
4274;SDS011;2151;50.988;11.068;2024-03-17T06:10:55;115.50;;;6.57;;
4274;SDS011;2151;50.988;11.068;2024-03-17T06:13:23;117.30;;;6.50;;
4274;SDS011;2151;50.988;11.068;2024-03-17T06:15:49;116.77;;;6.70;;
4274;SDS011;2151;50.988;11.068;2024-03-17T06:18:15;114.63;;;6.77;;
4274;SDS011;2151;50.988;11.068;2024-03-17T06:20:47;116.50;;;6.57;;
4274;SDS011;2151;50.988;11.068;2024-03-17T06:23:14;116.70;;;6.60;;
4274;SDS011;2151;50.988;11.068;2024-03-17T06:28:09;115.77;;;6.60;;
4274;SDS011;2151;50.988;11.068;2024-03-17T06:30:35;116.40;;;6.67;;
4274;SDS011;2151;50.988;11.068;2024-03-17T06:33:03;116.90;;;6.40;;
4274;SDS011;2151;50.988;11.068;2024-03-17T06:35:29;114.10;;;6.10;;
4274;SDS011;2151;50.988;11.068;2024-03-17T06:37:58;113.80;;;6.20;;
4274;SDS011;2151;50.988;11.068;2024-03-17T06:40:24;116.40;;;6.90;;
4274;SDS011;2151;50.988;11.068;2024-03-17T06:42:50;115.57;;;6.60;;
4274;SDS011;2151;50.988;11.068;2024-03-17T06:45:18;117.63;;;6.63;;
4274;SDS011;2151;50.988;11.068;2024-03-17T06:47:46;115.10;;;6.53;;
4274;SDS011;2151;50.988;11.068;2024-03-17T06:50:14;116.17;;;6.40;;
4274;SDS011;2151;50.988;11.068;2024-03-17T06:52:40;115.87;;;6.67;;
4274;SDS011;2151;50.988;11.068;2024-03-17T06:55:06;114.20;;;6.33;;
4274;SDS011;2151;50.988;11.068;2024-03-17T06:57:35;113.47;;;6.90;;
4274;SDS011;2151;50.988;11.068;2024-03-17T07:00:02;118.20;;;7.23;;
4274;SDS011;2151;50.988;11.068;2024-03-17T07:02:31;121.43;;;7.60;;
4274;SDS011;2151;50.988;11.068;2024-03-17T07:04:58;119.97;;;8.17;;
4274;SDS011;2151;50.988;11.068;2024-03-17T07:07:27;117.10;;;7.50;;
4274;SDS011;2151;50.988;11.068;2024-03-17T07:09:55;116.07;;;7.07;;
4274;SDS011;2151;50.988;11.068;2024-03-17T07:12:20;116.17;;;6.40;;
4274;SDS011;2151;50.988;11.068;2024-03-17T07:14:50;115.10;;;6.47;;
4274;SDS011;2151;50.988;11.068;2024-03-17T07:17:16;112.20;;;6.53;;
4274;SDS011;2151;50.988;11.068;2024-03-17T07:19:43;113.60;;;6.30;;
4274;SDS011;2151;50.988;11.068;2024-03-17T07:22:08;115.37;;;6.30;;
4274;SDS011;2151;50.988;11.068;2024-03-17T07:24:35;117.50;;;6.20;;
4274;SDS011;2151;50.988;11.068;2024-03-17T07:27:03;115.03;;;6.63;;
4274;SDS011;2151;50.988;11.068;2024-03-17T07:29:29;113.17;;;6.70;;
4274;SDS011;2151;50.988;11.068;2024-03-17T07:31:55;111.70;;;6.47;;
4274;SDS011;2151;50.988;11.068;2024-03-17T07:34:20;116.13;;;6.10;;
4274;SDS011;2151;50.988;11.068;2024-03-17T07:36:52;114.67;;;6.80;;
4274;SDS011;2151;50.988;11.068;2024-03-17T07:39:22;115.03;;;6.60;;
4274;SDS011;2151;50.988;11.068;2024-03-17T07:41:49;118.60;;;6.10;;
4274;SDS011;2151;50.988;11.068;2024-03-17T07:44:16;111.70;;;6.07;;
4274;SDS011;2151;50.988;11.068;2024-03-17T07:46:42;112.60;;;5.60;;
4274;SDS011;2151;50.988;11.068;2024-03-17T07:49:08;112.87;;;6.03;;
4274;SDS011;2151;50.988;11.068;2024-03-17T07:51:34;120.50;;;7.97;;
4274;SDS011;2151;50.988;11.068;2024-03-17T07:54:00;118.40;;;6.77;;
4274;SDS011;2151;50.988;11.068;2024-03-17T07:56:27;110.57;;;5.93;;
4274;SDS011;2151;50.988;11.068;2024-03-17T07:58:54;110.77;;;5.90;;
4274;SDS011;2151;50.988;11.068;2024-03-17T08:01:21;112.97;;;6.00;;
4274;SDS011;2151;50.988;11.068;2024-03-17T08:03:49;117.03;;;6.33;;
4274;SDS011;2151;50.988;11.068;2024-03-17T08:06:20;115.87;;;5.70;;
4274;SDS011;2151;50.988;11.068;2024-03-17T08:11:16;112.77;;;6.13;;
4274;SDS011;2151;50.988;11.068;2024-03-17T08:13:42;112.40;;;6.27;;
4274;SDS011;2151;50.988;11.068;2024-03-17T08:16:08;126.50;;;6.73;;
4274;SDS011;2151;50.988;11.068;2024-03-17T08:18:35;114.07;;;6.67;;
4274;SDS011;2151;50.988;11.068;2024-03-17T08:21:01;111.40;;;6.10;;
4274;SDS011;2151;50.988;11.068;2024-03-17T08:23:27;118.30;;;6.30;;
4274;SDS011;2151;50.988;11.068;2024-03-17T08:25:57;112.10;;;6.10;;
4274;SDS011;2151;50.988;11.068;2024-03-17T08:28:24;111.57;;;5.77;;
4274;SDS011;2151;50.988;11.068;2024-03-17T08:30:51;112.07;;;6.30;;
4274;SDS011;2151;50.988;11.068;2024-03-17T08:33:17;113.70;;;5.83;;
4274;SDS011;2151;50.988;11.068;2024-03-17T08:35:51;110.87;;;5.80;;
4274;SDS011;2151;50.988;11.068;2024-03-17T08:38:17;112.73;;;6.10;;
4274;SDS011;2151;50.988;11.068;2024-03-17T08:40:46;112.30;;;5.70;;
4274;SDS011;2151;50.988;11.068;2024-03-17T08:43:12;110.37;;;6.13;;
4274;SDS011;2151;50.988;11.068;2024-03-17T08:45:38;113.90;;;6.23;;
4274;SDS011;2151;50.988;11.068;2024-03-17T08:48:06;115.23;;;6.33;;
4274;SDS011;2151;50.988;11.068;2024-03-17T08:50:33;113.57;;;6.80;;
4274;SDS011;2151;50.988;11.068;2024-03-17T08:52:59;112.00;;;6.43;;
4274;SDS011;2151;50.988;11.068;2024-03-17T08:55:26;114.27;;;6.57;;
4274;SDS011;2151;50.988;11.068;2024-03-17T08:57:55;110.40;;;6.20;;
4274;SDS011;2151;50.988;11.068;2024-03-17T09:00:21;109.97;;;6.63;;
4274;SDS011;2151;50.988;11.068;2024-03-17T09:02:48;113.07;;;7.30;;
4274;SDS011;2151;50.988;11.068;2024-03-17T09:05:14;111.20;;;7.17;;
4274;SDS011;2151;50.988;11.068;2024-03-17T09:07:39;110.30;;;6.80;;
4274;SDS011;2151;50.988;11.068;2024-03-17T09:10:05;114.97;;;6.97;;
4274;SDS011;2151;50.988;11.068;2024-03-17T09:12:32;112.47;;;7.90;;
4274;SDS011;2151;50.988;11.068;2024-03-17T09:15:09;112.70;;;8.40;;
4274;SDS011;2151;50.988;11.068;2024-03-17T09:17:37;113.37;;;7.57;;
4274;SDS011;2151;50.988;11.068;2024-03-17T09:20:04;112.00;;;7.90;;
4274;SDS011;2151;50.988;11.068;2024-03-17T09:22:30;114.10;;;7.77;;
4274;SDS011;2151;50.988;11.068;2024-03-17T09:24:56;116.03;;;8.17;;
4274;SDS011;2151;50.988;11.068;2024-03-17T09:27:22;116.40;;;7.50;;
4274;SDS011;2151;50.988;11.068;2024-03-17T09:29:51;110.97;;;7.60;;
4274;SDS011;2151;50.988;11.068;2024-03-17T09:32:18;113.07;;;8.23;;
4274;SDS011;2151;50.988;11.068;2024-03-17T09:34:47;110.93;;;7.67;;
4274;SDS011;2151;50.988;11.068;2024-03-17T09:37:15;113.03;;;8.57;;
4274;SDS011;2151;50.988;11.068;2024-03-17T09:39:41;110.97;;;7.27;;
4274;SDS011;2151;50.988;11.068;2024-03-17T09:42:18;112.20;;;7.90;;
4274;SDS011;2151;50.988;11.068;2024-03-17T09:44:49;113.17;;;7.93;;
4274;SDS011;2151;50.988;11.068;2024-03-17T09:47:20;113.73;;;8.00;;
4274;SDS011;2151;50.988;11.068;2024-03-17T09:49:52;109.23;;;7.23;;
4274;SDS011;2151;50.988;11.068;2024-03-17T09:52:22;112.40;;;8.37;;
4274;SDS011;2151;50.988;11.068;2024-03-17T09:54:56;113.70;;;7.47;;
4274;SDS011;2151;50.988;11.068;2024-03-17T09:57:23;112.90;;;7.97;;
4274;SDS011;2151;50.988;11.068;2024-03-17T09:59:56;111.87;;;7.63;;
4274;SDS011;2151;50.988;11.068;2024-03-17T10:02:22;110.87;;;7.63;;
4274;SDS011;2151;50.988;11.068;2024-03-17T10:04:48;110.30;;;8.10;;
4274;SDS011;2151;50.988;11.068;2024-03-17T10:07:14;113.23;;;7.33;;
4274;SDS011;2151;50.988;11.068;2024-03-17T10:09:43;112.70;;;7.83;;
4274;SDS011;2151;50.988;11.068;2024-03-17T10:12:28;112.97;;;7.90;;
4274;SDS011;2151;50.988;11.068;2024-03-17T10:14:59;111.40;;;7.83;;
4274;SDS011;2151;50.988;11.068;2024-03-17T10:17:31;113.10;;;8.13;;
4274;SDS011;2151;50.988;11.068;2024-03-17T10:20:11;114.20;;;7.80;;
4274;SDS011;2151;50.988;11.068;2024-03-17T10:22:39;113.40;;;8.10;;
4274;SDS011;2151;50.988;11.068;2024-03-17T10:25:05;113.37;;;7.50;;
4274;SDS011;2151;50.988;11.068;2024-03-17T10:27:35;111.53;;;7.43;;
4274;SDS011;2151;50.988;11.068;2024-03-17T10:30:13;113.97;;;8.43;;
4274;SDS011;2151;50.988;11.068;2024-03-17T10:32:42;112.77;;;8.40;;
4274;SDS011;2151;50.988;11.068;2024-03-17T10:35:30;112.90;;;7.80;;
4274;SDS011;2151;50.988;11.068;2024-03-17T10:37:58;110.67;;;8.27;;
4274;SDS011;2151;50.988;11.068;2024-03-17T10:40:25;110.00;;;7.80;;
4274;SDS011;2151;50.988;11.068;2024-03-17T10:42:52;112.30;;;8.00;;
4274;SDS011;2151;50.988;11.068;2024-03-17T10:45:19;112.43;;;8.20;;
4274;SDS011;2151;50.988;11.068;2024-03-17T10:47:48;112.77;;;8.10;;
4274;SDS011;2151;50.988;11.068;2024-03-17T10:50:20;111.57;;;8.13;;
4274;SDS011;2151;50.988;11.068;2024-03-17T10:52:46;114.70;;;8.13;;
4274;SDS011;2151;50.988;11.068;2024-03-17T10:55:24;113.30;;;8.63;;
4274;SDS011;2151;50.988;11.068;2024-03-17T10:57:52;112.37;;;8.37;;
4274;SDS011;2151;50.988;11.068;2024-03-17T11:00:21;111.43;;;8.17;;
4274;SDS011;2151;50.988;11.068;2024-03-17T11:02:55;113.10;;;8.60;;
4274;SDS011;2151;50.988;11.068;2024-03-17T11:05:22;111.63;;;8.60;;
4274;SDS011;2151;50.988;11.068;2024-03-17T11:07:50;109.50;;;7.57;;
4274;SDS011;2151;50.988;11.068;2024-03-17T11:10:19;111.47;;;7.87;;
4274;SDS011;2151;50.988;11.068;2024-03-17T11:12:50;111.27;;;7.20;;
4274;SDS011;2151;50.988;11.068;2024-03-17T11:17:45;109.57;;;7.50;;
4274;SDS011;2151;50.988;11.068;2024-03-17T11:20:14;111.90;;;7.47;;
4274;SDS011;2151;50.988;11.068;2024-03-17T11:22:41;109.67;;;7.80;;
4274;SDS011;2151;50.988;11.068;2024-03-17T11:27:53;111.70;;;8.53;;
4274;SDS011;2151;50.988;11.068;2024-03-17T11:35:50;113.53;;;8.57;;
4274;SDS011;2151;50.988;11.068;2024-03-17T11:44:12;109.40;;;8.00;;
4274;SDS011;2151;50.988;11.068;2024-03-17T11:46:41;109.20;;;8.50;;
4274;SDS011;2151;50.988;11.068;2024-03-17T11:51:48;114.10;;;8.80;;
4274;SDS011;2151;50.988;11.068;2024-03-17T11:54:14;112.23;;;9.00;;
4274;SDS011;2151;50.988;11.068;2024-03-17T11:59:39;111.33;;;8.57;;
4274;SDS011;2151;50.988;11.068;2024-03-17T12:02:20;111.30;;;8.30;;
4274;SDS011;2151;50.988;11.068;2024-03-17T12:04:47;112.60;;;7.87;;
4274;SDS011;2151;50.988;11.068;2024-03-17T12:07:17;110.10;;;7.70;;
4274;SDS011;2151;50.988;11.068;2024-03-17T12:09:43;110.93;;;8.40;;
4274;SDS011;2151;50.988;11.068;2024-03-17T12:12:11;112.10;;;8.23;;
4274;SDS011;2151;50.988;11.068;2024-03-17T12:14:39;111.10;;;8.17;;
4274;SDS011;2151;50.988;11.068;2024-03-17T12:17:07;112.77;;;8.30;;
4274;SDS011;2151;50.988;11.068;2024-03-17T12:19:36;110.10;;;8.53;;
4274;SDS011;2151;50.988;11.068;2024-03-17T12:22:04;115.60;;;9.30;;
4274;SDS011;2151;50.988;11.068;2024-03-17T12:24:30;115.90;;;9.07;;
4274;SDS011;2151;50.988;11.068;2024-03-17T12:26:57;114.40;;;8.80;;
4274;SDS011;2151;50.988;11.068;2024-03-17T12:31:56;115.23;;;9.20;;
4274;SDS011;2151;50.988;11.068;2024-03-17T12:34:23;109.93;;;8.70;;
4274;SDS011;2151;50.988;11.068;2024-03-17T12:36:50;111.77;;;8.20;;
4274;SDS011;2151;50.988;11.068;2024-03-17T12:39:21;111.57;;;8.80;;
4274;SDS011;2151;50.988;11.068;2024-03-17T12:44:34;111.30;;;9.00;;
4274;SDS011;2151;50.988;11.068;2024-03-17T12:47:01;115.60;;;9.70;;
4274;SDS011;2151;50.988;11.068;2024-03-17T12:49:28;112.87;;;8.87;;
4274;SDS011;2151;50.988;11.068;2024-03-17T12:51:54;115.07;;;9.37;;
4274;SDS011;2151;50.988;11.068;2024-03-17T12:54:21;113.07;;;9.50;;
4274;SDS011;2151;50.988;11.068;2024-03-17T12:56:49;112.07;;;8.20;;
4274;SDS011;2151;50.988;11.068;2024-03-17T12:59:42;111.40;;;8.70;;
4274;SDS011;2151;50.988;11.068;2024-03-17T13:02:27;112.30;;;9.20;;
4274;SDS011;2151;50.988;11.068;2024-03-17T13:07:38;111.13;;;8.53;;
4274;SDS011;2151;50.988;11.068;2024-03-17T13:10:10;111.30;;;8.17;;
4274;SDS011;2151;50.988;11.068;2024-03-17T13:12:37;115.67;;;8.83;;
4274;SDS011;2151;50.988;11.068;2024-03-17T13:15:06;115.07;;;9.10;;
4274;SDS011;2151;50.988;11.068;2024-03-17T13:17:32;114.27;;;9.13;;
4274;SDS011;2151;50.988;11.068;2024-03-17T13:20:00;115.57;;;9.53;;
4274;SDS011;2151;50.988;11.068;2024-03-17T13:22:30;112.73;;;8.97;;
4274;SDS011;2151;50.988;11.068;2024-03-17T13:24:58;113.27;;;9.33;;
4274;SDS011;2151;50.988;11.068;2024-03-17T13:27:25;111.57;;;9.10;;
4274;SDS011;2151;50.988;11.068;2024-03-17T13:32:20;112.00;;;9.20;;
4274;SDS011;2151;50.988;11.068;2024-03-17T13:34:48;112.17;;;9.53;;
4274;SDS011;2151;50.988;11.068;2024-03-17T13:37:17;113.20;;;9.37;;
4274;SDS011;2151;50.988;11.068;2024-03-17T13:39:51;117.90;;;10.47;;
4274;SDS011;2151;50.988;11.068;2024-03-17T13:42:16;115.37;;;9.20;;
4274;SDS011;2151;50.988;11.068;2024-03-17T13:44:43;113.20;;;8.77;;
4274;SDS011;2151;50.988;11.068;2024-03-17T13:47:23;115.07;;;9.00;;
4274;SDS011;2151;50.988;11.068;2024-03-17T13:49:50;113.53;;;8.97;;
4274;SDS011;2151;50.988;11.068;2024-03-17T13:52:15;117.70;;;10.63;;
4274;SDS011;2151;50.988;11.068;2024-03-17T13:54:40;114.93;;;9.37;;
4274;SDS011;2151;50.988;11.068;2024-03-17T13:57:11;115.77;;;9.70;;
4274;SDS011;2151;50.988;11.068;2024-03-17T13:59:38;119.17;;;9.40;;
4274;SDS011;2151;50.988;11.068;2024-03-17T14:04:33;119.10;;;11.07;;
4274;SDS011;2151;50.988;11.068;2024-03-17T14:06:59;115.30;;;9.93;;
4274;SDS011;2151;50.988;11.068;2024-03-17T14:09:30;115.40;;;10.30;;
4274;SDS011;2151;50.988;11.068;2024-03-17T14:11:56;115.90;;;10.27;;
4274;SDS011;2151;50.988;11.068;2024-03-17T14:14:23;113.67;;;9.40;;
4274;SDS011;2151;50.988;11.068;2024-03-17T14:16:49;115.37;;;10.70;;
4274;SDS011;2151;50.988;11.068;2024-03-17T14:19:16;114.87;;;10.73;;
4274;SDS011;2151;50.988;11.068;2024-03-17T14:21:42;117.80;;;10.30;;
4274;SDS011;2151;50.988;11.068;2024-03-17T14:24:07;118.40;;;10.60;;
4274;SDS011;2151;50.988;11.068;2024-03-17T14:26:35;119.60;;;11.47;;
4274;SDS011;2151;50.988;11.068;2024-03-17T14:29:03;121.77;;;11.83;;
4274;SDS011;2151;50.988;11.068;2024-03-17T14:31:32;114.70;;;11.30;;
4274;SDS011;2151;50.988;11.068;2024-03-17T14:33:59;116.00;;;9.87;;
4274;SDS011;2151;50.988;11.068;2024-03-17T14:38:58;111.43;;;9.53;;
4274;SDS011;2151;50.988;11.068;2024-03-17T14:41:29;113.80;;;10.47;;
4274;SDS011;2151;50.988;11.068;2024-03-17T14:43:55;116.27;;;10.73;;
4274;SDS011;2151;50.988;11.068;2024-03-17T14:46:24;114.90;;;10.90;;
4274;SDS011;2151;50.988;11.068;2024-03-17T14:48:50;116.90;;;10.50;;
4274;SDS011;2151;50.988;11.068;2024-03-17T14:51:18;114.27;;;10.60;;
4274;SDS011;2151;50.988;11.068;2024-03-17T14:53:47;117.37;;;10.80;;
4274;SDS011;2151;50.988;11.068;2024-03-17T14:56:20;114.27;;;10.63;;
4274;SDS011;2151;50.988;11.068;2024-03-17T14:58:54;116.97;;;11.30;;
4274;SDS011;2151;50.988;11.068;2024-03-17T15:01:22;123.40;;;10.83;;
4274;SDS011;2151;50.988;11.068;2024-03-17T15:03:48;115.27;;;10.50;;
4274;SDS011;2151;50.988;11.068;2024-03-17T15:06:13;116.07;;;10.70;;
4274;SDS011;2151;50.988;11.068;2024-03-17T15:08:42;117.07;;;10.83;;
4274;SDS011;2151;50.988;11.068;2024-03-17T15:11:08;120.43;;;10.60;;
4274;SDS011;2151;50.988;11.068;2024-03-17T15:13:35;115.90;;;10.87;;
4274;SDS011;2151;50.988;11.068;2024-03-17T15:16:02;118.10;;;10.47;;
4274;SDS011;2151;50.988;11.068;2024-03-17T15:18:30;119.60;;;10.40;;